sensor_id;sensor_type;location;lat;lon;timestamp;P1;durP1;ratioP1;P2;durP2;ratioP2
21158;SDS011;10737;45.436;4.390;2023-07-29T00:03:31;8.77;;;5.80;;
21158;SDS011;10737;45.436;4.390;2023-07-29T00:08:34;6.15;;;5.55;;
21158;SDS011;10737;45.436;4.390;2023-07-29T00:13:39;6.20;;;5.55;;
21158;SDS011;10737;45.436;4.390;2023-07-29T00:18:42;7.65;;;6.45;;
21158;SDS011;10737;45.436;4.390;2023-07-29T00:23:45;7.55;;;6.95;;
21158;SDS011;10737;45.436;4.390;2023-07-29T00:28:49;6.05;;;5.45;;
21158;SDS011;10737;45.436;4.390;2023-07-29T00:33:52;6.40;;;5.80;;
21158;SDS011;10737;45.436;4.390;2023-07-29T00:38:56;6.32;;;5.93;;
21158;SDS011;10737;45.436;4.390;2023-07-29T00:44:00;6.53;;;6.03;;
21158;SDS011;10737;45.436;4.390;2023-07-29T00:49:04;8.00;;;7.40;;
21158;SDS011;10737;45.436;4.390;2023-07-29T00:54:08;6.63;;;6.13;;
21158;SDS011;10737;45.436;4.390;2023-07-29T00:59:12;6.95;;;6.45;;
21158;SDS011;10737;45.436;4.390;2023-07-29T01:04:15;7.15;;;6.35;;
21158;SDS011;10737;45.436;4.390;2023-07-29T01:09:20;6.60;;;6.10;;
21158;SDS011;10737;45.436;4.390;2023-07-29T01:14:28;6.72;;;6.20;;
21158;SDS011;10737;45.436;4.390;2023-07-29T01:19:42;6.22;;;5.72;;
21158;SDS011;10737;45.436;4.390;2023-07-29T01:24:47;6.85;;;6.32;;
21158;SDS011;10737;45.436;4.390;2023-07-29T01:29:50;6.45;;;5.85;;
21158;SDS011;10737;45.436;4.390;2023-07-29T01:34:56;6.35;;;5.85;;
21158;SDS011;10737;45.436;4.390;2023-07-29T01:40:04;7.07;;;6.38;;
21158;SDS011;10737;45.436;4.390;2023-07-29T01:45:08;6.85;;;6.25;;
21158;SDS011;10737;45.436;4.390;2023-07-29T01:50:11;6.97;;;6.47;;
21158;SDS011;10737;45.436;4.390;2023-07-29T01:55:16;6.38;;;5.88;;
21158;SDS011;10737;45.436;4.390;2023-07-29T02:00:19;6.25;;;5.82;;
21158;SDS011;10737;45.436;4.390;2023-07-29T02:05:22;6.82;;;6.30;;
21158;SDS011;10737;45.436;4.390;2023-07-29T02:10:27;6.75;;;6.25;;
21158;SDS011;10737;45.436;4.390;2023-07-29T02:15:30;8.88;;;8.00;;
21158;SDS011;10737;45.436;4.390;2023-07-29T02:20:33;7.68;;;7.00;;
21158;SDS011;10737;45.436;4.390;2023-07-29T02:25:38;8.80;;;7.93;;
21158;SDS011;10737;45.436;4.390;2023-07-29T02:30:42;8.25;;;7.45;;
21158;SDS011;10737;45.436;4.390;2023-07-29T02:35:47;7.28;;;6.20;;
21158;SDS011;10737;45.436;4.390;2023-07-29T02:40:52;6.07;;;5.68;;
21158;SDS011;10737;45.436;4.390;2023-07-29T02:45:55;6.38;;;5.88;;
21158;SDS011;10737;45.436;4.390;2023-07-29T02:50:59;6.47;;;5.90;;
21158;SDS011;10737;45.436;4.390;2023-07-29T02:56:03;5.63;;;5.20;;
21158;SDS011;10737;45.436;4.390;2023-07-29T03:01:08;5.97;;;5.47;;
21158;SDS011;10737;45.436;4.390;2023-07-29T03:06:14;5.45;;;5.10;;
21158;SDS011;10737;45.436;4.390;2023-07-29T03:11:19;6.35;;;5.80;;
21158;SDS011;10737;45.436;4.390;2023-07-29T03:16:22;5.68;;;5.15;;
21158;SDS011;10737;45.436;4.390;2023-07-29T03:21:29;6.22;;;5.57;;
21158;SDS011;10737;45.436;4.390;2023-07-29T03:26:33;5.60;;;5.20;;
21158;SDS011;10737;45.436;4.390;2023-07-29T03:31:37;6.15;;;5.75;;
21158;SDS011;10737;45.436;4.390;2023-07-29T03:36:40;6.10;;;5.70;;
21158;SDS011;10737;45.436;4.390;2023-07-29T03:41:44;5.43;;;5.13;;
21158;SDS011;10737;45.436;4.390;2023-07-29T03:46:48;5.97;;;5.53;;
21158;SDS011;10737;45.436;4.390;2023-07-29T03:51:51;6.03;;;5.53;;
21158;SDS011;10737;45.436;4.390;2023-07-29T03:56:55;5.45;;;5.05;;
21158;SDS011;10737;45.436;4.390;2023-07-29T04:01:58;7.53;;;5.95;;
21158;SDS011;10737;45.436;4.390;2023-07-29T04:07:01;5.60;;;5.10;;
21158;SDS011;10737;45.436;4.390;2023-07-29T04:12:06;6.57;;;5.70;;
21158;SDS011;10737;45.436;4.390;2023-07-29T04:17:10;9.18;;;6.70;;
21158;SDS011;10737;45.436;4.390;2023-07-29T04:22:13;5.90;;;5.40;;
21158;SDS011;10737;45.436;4.390;2023-07-29T04:27:18;6.40;;;5.80;;
21158;SDS011;10737;45.436;4.390;2023-07-29T04:32:21;6.80;;;6.20;;
21158;SDS011;10737;45.436;4.390;2023-07-29T04:37:24;7.00;;;6.40;;
21158;SDS011;10737;45.436;4.390;2023-07-29T04:42:29;6.93;;;6.32;;
21158;SDS011;10737;45.436;4.390;2023-07-29T04:47:32;6.43;;;5.93;;
21158;SDS011;10737;45.436;4.390;2023-07-29T04:52:35;6.30;;;5.80;;
21158;SDS011;10737;45.436;4.390;2023-07-29T04:57:40;6.00;;;5.53;;
21158;SDS011;10737;45.436;4.390;2023-07-29T05:02:43;9.25;;;8.45;;
21158;SDS011;10737;45.436;4.390;2023-07-29T05:07:47;9.40;;;8.50;;
21158;SDS011;10737;45.436;4.390;2023-07-29T05:12:51;9.27;;;7.63;;
21158;SDS011;10737;45.436;4.390;2023-07-29T05:17:54;7.57;;;6.88;;
21158;SDS011;10737;45.436;4.390;2023-07-29T05:22:57;6.55;;;5.95;;
21158;SDS011;10737;45.436;4.390;2023-07-29T05:28:02;6.00;;;5.57;;
21158;SDS011;10737;45.436;4.390;2023-07-29T05:33:05;6.35;;;5.85;;
21158;SDS011;10737;45.436;4.390;2023-07-29T05:38:09;8.85;;;6.05;;
21158;SDS011;10737;45.436;4.390;2023-07-29T05:43:14;6.28;;;5.68;;
21158;SDS011;10737;45.436;4.390;2023-07-29T05:48:18;5.60;;;5.18;;
21158;SDS011;10737;45.436;4.390;2023-07-29T05:53:21;5.85;;;5.28;;
21158;SDS011;10737;45.436;4.390;2023-07-29T05:58:25;6.65;;;6.15;;
21158;SDS011;10737;45.436;4.390;2023-07-29T06:03:29;5.43;;;5.03;;
21158;SDS011;10737;45.436;4.390;2023-07-29T06:08:32;6.18;;;5.68;;
21158;SDS011;10737;45.436;4.390;2023-07-29T06:13:38;6.22;;;5.63;;
21158;SDS011;10737;45.436;4.390;2023-07-29T06:18:41;5.88;;;5.30;;
21158;SDS011;10737;45.436;4.390;2023-07-29T06:23:44;6.00;;;5.50;;
21158;SDS011;10737;45.436;4.390;2023-07-29T06:28:48;6.55;;;5.55;;
21158;SDS011;10737;45.436;4.390;2023-07-29T06:33:51;6.03;;;5.47;;
21158;SDS011;10737;45.436;4.390;2023-07-29T06:38:56;6.63;;;5.45;;
21158;SDS011;10737;45.436;4.390;2023-07-29T06:44:00;6.18;;;5.65;;
21158;SDS011;10737;45.436;4.390;2023-07-29T06:49:05;6.63;;;6.10;;
21158;SDS011;10737;45.436;4.390;2023-07-29T06:54:08;6.47;;;5.85;;
21158;SDS011;10737;45.436;4.390;2023-07-29T06:59:12;6.55;;;6.05;;
21158;SDS011;10737;45.436;4.390;2023-07-29T07:04:15;5.95;;;5.43;;
21158;SDS011;10737;45.436;4.390;2023-07-29T07:09:19;7.10;;;6.40;;
21158;SDS011;10737;45.436;4.390;2023-07-29T07:14:23;7.20;;;6.38;;
21158;SDS011;10737;45.436;4.390;2023-07-29T07:19:27;6.82;;;6.22;;
21158;SDS011;10737;45.436;4.390;2023-07-29T07:24:30;6.70;;;6.10;;
21158;SDS011;10737;45.436;4.390;2023-07-29T07:29:35;6.43;;;5.93;;
21158;SDS011;10737;45.436;4.390;2023-07-29T07:34:38;6.60;;;5.97;;
21158;SDS011;10737;45.436;4.390;2023-07-29T07:39:41;6.80;;;6.07;;
21158;SDS011;10737;45.436;4.390;2023-07-29T07:44:45;6.07;;;5.50;;
21158;SDS011;10737;45.436;4.390;2023-07-29T07:49:49;6.82;;;6.03;;
21158;SDS011;10737;45.436;4.390;2023-07-29T07:54:52;7.53;;;6.05;;
21158;SDS011;10737;45.436;4.390;2023-07-29T07:59:56;8.70;;;6.20;;
21158;SDS011;10737;45.436;4.390;2023-07-29T08:05:00;10.25;;;5.55;;
21158;SDS011;10737;45.436;4.390;2023-07-29T08:10:03;6.70;;;6.10;;
21158;SDS011;10737;45.436;4.390;2023-07-29T08:15:08;6.97;;;6.07;;
21158;SDS011;10737;45.436;4.390;2023-07-29T08:20:11;7.38;;;6.68;;
21158;SDS011;10737;45.436;4.390;2023-07-29T08:25:14;8.40;;;7.50;;
21158;SDS011;10737;45.436;4.390;2023-07-29T08:30:19;11.45;;;6.40;;
21158;SDS011;10737;45.436;4.390;2023-07-29T08:35:22;32.15;;;9.55;;
21158;SDS011;10737;45.436;4.390;2023-07-29T08:40:26;9.18;;;6.72;;
21158;SDS011;10737;45.436;4.390;2023-07-29T08:45:32;8.10;;;7.30;;
21158;SDS011;10737;45.436;4.390;2023-07-29T08:50:37;8.40;;;7.50;;
21158;SDS011;10737;45.436;4.390;2023-07-29T08:55:41;14.00;;;11.45;;
21158;SDS011;10737;45.436;4.390;2023-07-29T09:00:45;7.85;;;7.07;;
21158;SDS011;10737;45.436;4.390;2023-07-29T09:05:49;10.30;;;9.32;;
21158;SDS011;10737;45.436;4.390;2023-07-29T09:10:53;7.18;;;6.60;;
21158;SDS011;10737;45.436;4.390;2023-07-29T09:15:58;7.63;;;6.93;;
21158;SDS011;10737;45.436;4.390;2023-07-29T09:21:01;7.63;;;6.97;;
21158;SDS011;10737;45.436;4.390;2023-07-29T09:26:04;7.28;;;6.68;;
21158;SDS011;10737;45.436;4.390;2023-07-29T09:31:08;7.55;;;6.40;;
21158;SDS011;10737;45.436;4.390;2023-07-29T09:36:21;7.05;;;6.35;;
21158;SDS011;10737;45.436;4.390;2023-07-29T09:41:25;7.10;;;6.53;;
21158;SDS011;10737;45.436;4.390;2023-07-29T09:46:32;8.73;;;7.82;;
21158;SDS011;10737;45.436;4.390;2023-07-29T09:51:37;12.68;;;11.35;;
21158;SDS011;10737;45.436;4.390;2023-07-29T09:56:41;16.00;;;14.57;;
21158;SDS011;10737;45.436;4.390;2023-07-29T10:01:46;8.63;;;7.82;;
21158;SDS011;10737;45.436;4.390;2023-07-29T10:06:49;10.52;;;9.73;;
21158;SDS011;10737;45.436;4.390;2023-07-29T10:11:52;9.27;;;8.10;;
21158;SDS011;10737;45.436;4.390;2023-07-29T10:16:58;8.27;;;7.50;;
21158;SDS011;10737;45.436;4.390;2023-07-29T10:22:01;7.47;;;6.88;;
21158;SDS011;10737;45.436;4.390;2023-07-29T10:27:06;10.18;;;8.15;;
21158;SDS011;10737;45.436;4.390;2023-07-29T10:32:11;9.32;;;8.00;;
21158;SDS011;10737;45.436;4.390;2023-07-29T10:37:14;11.25;;;9.02;;
21158;SDS011;10737;45.436;4.390;2023-07-29T10:42:18;9.93;;;8.90;;
21158;SDS011;10737;45.436;4.390;2023-07-29T10:47:24;20.23;;;12.55;;
21158;SDS011;10737;45.436;4.390;2023-07-29T10:52:30;17.38;;;10.15;;
21158;SDS011;10737;45.436;4.390;2023-07-29T10:57:34;21.70;;;13.38;;
21158;SDS011;10737;45.436;4.390;2023-07-29T11:02:39;11.45;;;9.63;;
21158;SDS011;10737;45.436;4.390;2023-07-29T11:07:45;11.02;;;9.38;;
21158;SDS011;10737;45.436;4.390;2023-07-29T11:12:49;15.60;;;13.65;;
21158;SDS011;10737;45.436;4.390;2023-07-29T11:17:55;11.27;;;9.43;;
21158;SDS011;10737;45.436;4.390;2023-07-29T11:23:01;10.93;;;8.20;;
21158;SDS011;10737;45.436;4.390;2023-07-29T11:28:04;8.05;;;7.03;;
21158;SDS011;10737;45.436;4.390;2023-07-29T11:33:09;9.70;;;8.88;;
21158;SDS011;10737;45.436;4.390;2023-07-29T11:38:14;10.73;;;9.73;;
21158;SDS011;10737;45.436;4.390;2023-07-29T11:43:18;7.25;;;6.53;;
21158;SDS011;10737;45.436;4.390;2023-07-29T11:48:30;8.40;;;7.70;;
21158;SDS011;10737;45.436;4.390;2023-07-29T11:53:34;9.82;;;9.02;;
21158;SDS011;10737;45.436;4.390;2023-07-29T11:58:37;9.02;;;8.23;;
21158;SDS011;10737;45.436;4.390;2023-07-29T12:03:41;7.07;;;6.45;;
21158;SDS011;10737;45.436;4.390;2023-07-29T12:08:45;8.07;;;7.47;;
21158;SDS011;10737;45.436;4.390;2023-07-29T12:13:48;7.07;;;6.40;;
21158;SDS011;10737;45.436;4.390;2023-07-29T12:18:53;6.78;;;6.25;;
21158;SDS011;10737;45.436;4.390;2023-07-29T12:23:56;7.97;;;6.25;;
21158;SDS011;10737;45.436;4.390;2023-07-29T12:29:10;10.45;;;9.35;;
21158;SDS011;10737;45.436;4.390;2023-07-29T12:34:18;8.25;;;7.05;;
21158;SDS011;10737;45.436;4.390;2023-07-29T12:39:23;6.88;;;6.38;;
21158;SDS011;10737;45.436;4.390;2023-07-29T12:44:29;6.68;;;6.07;;
21158;SDS011;10737;45.436;4.390;2023-07-29T12:49:33;8.52;;;7.72;;
21158;SDS011;10737;45.436;4.390;2023-07-29T12:54:37;8.70;;;7.90;;
21158;SDS011;10737;45.436;4.390;2023-07-29T12:59:42;7.28;;;6.57;;
21158;SDS011;10737;45.436;4.390;2023-07-29T13:04:47;8.57;;;6.97;;
21158;SDS011;10737;45.436;4.390;2023-07-29T13:09:50;6.63;;;6.13;;
21158;SDS011;10737;45.436;4.390;2023-07-29T13:14:53;6.28;;;5.78;;
21158;SDS011;10737;45.436;4.390;2023-07-29T13:19:57;8.02;;;6.53;;
21158;SDS011;10737;45.436;4.390;2023-07-29T13:25:01;7.70;;;7.05;;
21158;SDS011;10737;45.436;4.390;2023-07-29T13:30:05;8.95;;;8.15;;
21158;SDS011;10737;45.436;4.390;2023-07-29T13:35:23;5.28;;;4.95;;
21158;SDS011;10737;45.436;4.390;2023-07-29T13:40:27;5.43;;;4.90;;
21158;SDS011;10737;45.436;4.390;2023-07-29T13:45:30;6.10;;;5.70;;
21158;SDS011;10737;45.436;4.390;2023-07-29T13:50:35;14.35;;;13.15;;
21158;SDS011;10737;45.436;4.390;2023-07-29T13:55:38;6.05;;;5.55;;
21158;SDS011;10737;45.436;4.390;2023-07-29T14:00:41;6.25;;;5.85;;
21158;SDS011;10737;45.436;4.390;2023-07-29T14:05:46;22.88;;;20.73;;
21158;SDS011;10737;45.436;4.390;2023-07-29T14:10:49;10.00;;;9.10;;
21158;SDS011;10737;45.436;4.390;2023-07-29T14:15:53;5.57;;;5.07;;
21158;SDS011;10737;45.436;4.390;2023-07-29T14:20:58;11.45;;;10.35;;
21158;SDS011;10737;45.436;4.390;2023-07-29T14:26:01;6.25;;;5.75;;
21158;SDS011;10737;45.436;4.390;2023-07-29T14:31:04;15.25;;;13.75;;
21158;SDS011;10737;45.436;4.390;2023-07-29T14:36:09;8.82;;;8.13;;
21158;SDS011;10737;45.436;4.390;2023-07-29T14:41:12;6.55;;;5.95;;
21158;SDS011;10737;45.436;4.390;2023-07-29T14:46:15;15.32;;;14.02;;
21158;SDS011;10737;45.436;4.390;2023-07-29T14:51:20;8.13;;;7.43;;
21158;SDS011;10737;45.436;4.390;2023-07-29T14:56:25;6.00;;;5.50;;
21158;SDS011;10737;45.436;4.390;2023-07-29T15:01:28;7.32;;;6.72;;
21158;SDS011;10737;45.436;4.390;2023-07-29T15:06:32;5.25;;;4.95;;
21158;SDS011;10737;45.436;4.390;2023-07-29T15:11:36;5.80;;;5.05;;
21158;SDS011;10737;45.436;4.390;2023-07-29T15:16:39;6.57;;;5.97;;
21158;SDS011;10737;45.436;4.390;2023-07-29T15:21:44;6.25;;;5.68;;
21158;SDS011;10737;45.436;4.390;2023-07-29T15:26:47;32.67;;;29.48;;
21158;SDS011;10737;45.436;4.390;2023-07-29T15:31:50;4.97;;;4.60;;
21158;SDS011;10737;45.436;4.390;2023-07-29T15:36:55;6.00;;;5.50;;
21158;SDS011;10737;45.436;4.390;2023-07-29T15:41:58;9.98;;;9.18;;
21158;SDS011;10737;45.436;4.390;2023-07-29T15:47:01;9.15;;;8.32;;
21158;SDS011;10737;45.436;4.390;2023-07-29T15:52:06;5.38;;;4.97;;
21158;SDS011;10737;45.436;4.390;2023-07-29T15:57:11;8.70;;;8.00;;
21158;SDS011;10737;45.436;4.390;2023-07-29T16:02:14;6.13;;;5.72;;
21158;SDS011;10737;45.436;4.390;2023-07-29T16:07:19;8.02;;;7.40;;
21158;SDS011;10737;45.436;4.390;2023-07-29T16:12:22;11.43;;;10.35;;
21158;SDS011;10737;45.436;4.390;2023-07-29T16:17:26;6.68;;;6.13;;
21158;SDS011;10737;45.436;4.390;2023-07-29T16:22:30;5.68;;;5.28;;
21158;SDS011;10737;45.436;4.390;2023-07-29T16:27:34;10.85;;;9.80;;
21158;SDS011;10737;45.436;4.390;2023-07-29T16:32:37;5.97;;;5.47;;
21158;SDS011;10737;45.436;4.390;2023-07-29T16:37:45;5.70;;;5.13;;
21158;SDS011;10737;45.436;4.390;2023-07-29T16:42:48;10.27;;;8.75;;
21158;SDS011;10737;45.436;4.390;2023-07-29T16:47:51;8.90;;;8.20;;
21158;SDS011;10737;45.436;4.390;2023-07-29T16:52:56;7.85;;;7.15;;
21158;SDS011;10737;45.436;4.390;2023-07-29T16:58:01;8.57;;;7.68;;
21158;SDS011;10737;45.436;4.390;2023-07-29T17:03:04;21.13;;;19.33;;
21158;SDS011;10737;45.436;4.390;2023-07-29T17:08:08;9.50;;;8.70;;
21158;SDS011;10737;45.436;4.390;2023-07-29T17:13:12;8.65;;;7.95;;
21158;SDS011;10737;45.436;4.390;2023-07-29T17:18:15;11.85;;;10.82;;
21158;SDS011;10737;45.436;4.390;2023-07-29T17:23:19;8.68;;;7.93;;
21158;SDS011;10737;45.436;4.390;2023-07-29T17:28:23;7.75;;;7.05;;
21158;SDS011;10737;45.436;4.390;2023-07-29T17:33:26;12.18;;;11.00;;
21158;SDS011;10737;45.436;4.390;2023-07-29T17:38:30;18.85;;;17.10;;
21158;SDS011;10737;45.436;4.390;2023-07-29T17:43:33;44.88;;;40.13;;
21158;SDS011;10737;45.436;4.390;2023-07-29T17:48:37;19.33;;;17.38;;
21158;SDS011;10737;45.436;4.390;2023-07-29T17:53:41;10.98;;;9.93;;
21158;SDS011;10737;45.436;4.390;2023-07-29T17:58:44;18.30;;;16.70;;
21158;SDS011;10737;45.436;4.390;2023-07-29T18:03:47;16.33;;;13.90;;
21158;SDS011;10737;45.436;4.390;2023-07-29T18:08:52;14.25;;;12.88;;
21158;SDS011;10737;45.436;4.390;2023-07-29T18:13:55;25.27;;;23.17;;
21158;SDS011;10737;45.436;4.390;2023-07-29T18:18:58;14.20;;;12.90;;
21158;SDS011;10737;45.436;4.390;2023-07-29T18:24:03;12.45;;;11.25;;
21158;SDS011;10737;45.436;4.390;2023-07-29T18:29:06;10.38;;;9.48;;
21158;SDS011;10737;45.436;4.390;2023-07-29T18:34:09;14.40;;;13.00;;
21158;SDS011;10737;45.436;4.390;2023-07-29T18:39:14;30.65;;;27.48;;
21158;SDS011;10737;45.436;4.390;2023-07-29T18:44:18;29.95;;;27.10;;
21158;SDS011;10737;45.436;4.390;2023-07-29T18:49:21;44.25;;;39.63;;
21158;SDS011;10737;45.436;4.390;2023-07-29T18:54:26;21.00;;;18.77;;
21158;SDS011;10737;45.436;4.390;2023-07-29T18:59:30;24.33;;;21.00;;
21158;SDS011;10737;45.436;4.390;2023-07-29T19:04:33;15.38;;;13.82;;
21158;SDS011;10737;45.436;4.390;2023-07-29T19:09:37;23.70;;;20.83;;
21158;SDS011;10737;45.436;4.390;2023-07-29T19:14:40;27.05;;;19.88;;
21158;SDS011;10737;45.436;4.390;2023-07-29T19:19:43;10.57;;;9.73;;
21158;SDS011;10737;45.436;4.390;2023-07-29T19:24:48;19.30;;;17.40;;
21158;SDS011;10737;45.436;4.390;2023-07-29T19:29:51;19.88;;;17.85;;
21158;SDS011;10737;45.436;4.390;2023-07-29T19:34:54;37.78;;;33.78;;
21158;SDS011;10737;45.436;4.390;2023-07-29T19:40:00;49.67;;;43.83;;
21158;SDS011;10737;45.436;4.390;2023-07-29T19:45:04;16.50;;;14.82;;
21158;SDS011;10737;45.436;4.390;2023-07-29T19:50:08;11.95;;;10.82;;
21158;SDS011;10737;45.436;4.390;2023-07-29T19:55:13;14.88;;;13.52;;
21158;SDS011;10737;45.436;4.390;2023-07-29T20:00:16;18.63;;;16.77;;
21158;SDS011;10737;45.436;4.390;2023-07-29T20:05:19;63.88;;;57.22;;
21158;SDS011;10737;45.436;4.390;2023-07-29T20:10:23;31.27;;;27.70;;
21158;SDS011;10737;45.436;4.390;2023-07-29T20:15:30;23.63;;;20.83;;
21158;SDS011;10737;45.436;4.390;2023-07-29T20:20:33;32.47;;;29.08;;
21158;SDS011;10737;45.436;4.390;2023-07-29T20:25:38;27.35;;;24.13;;
21158;SDS011;10737;45.436;4.390;2023-07-29T20:30:41;61.05;;;54.22;;
21158;SDS011;10737;45.436;4.390;2023-07-29T20:35:51;36.35;;;32.50;;
21158;SDS011;10737;45.436;4.390;2023-07-29T20:40:56;49.45;;;32.95;;
21158;SDS011;10737;45.436;4.390;2023-07-29T20:45:59;36.60;;;32.38;;
21158;SDS011;10737;45.436;4.390;2023-07-29T20:51:02;51.83;;;46.10;;
21158;SDS011;10737;45.436;4.390;2023-07-29T20:56:07;25.33;;;22.75;;
21158;SDS011;10737;45.436;4.390;2023-07-29T21:01:10;28.45;;;24.58;;
21158;SDS011;10737;45.436;4.390;2023-07-29T21:06:13;14.10;;;12.80;;
21158;SDS011;10737;45.436;4.390;2023-07-29T21:11:18;14.90;;;13.40;;
21158;SDS011;10737;45.436;4.390;2023-07-29T21:16:21;23.17;;;20.83;;
21158;SDS011;10737;45.436;4.390;2023-07-29T21:21:24;40.90;;;36.80;;
21158;SDS011;10737;45.436;4.390;2023-07-29T21:26:29;65.68;;;58.00;;
21158;SDS011;10737;45.436;4.390;2023-07-29T21:31:32;81.40;;;69.70;;
21158;SDS011;10737;45.436;4.390;2023-07-29T21:36:35;15.45;;;13.93;;
21158;SDS011;10737;45.436;4.390;2023-07-29T21:41:40;13.45;;;12.05;;
21158;SDS011;10737;45.436;4.390;2023-07-29T21:46:43;17.63;;;15.77;;
21158;SDS011;10737;45.436;4.390;2023-07-29T21:51:46;13.75;;;12.43;;
21158;SDS011;10737;45.436;4.390;2023-07-29T21:56:50;19.30;;;17.30;;
21158;SDS011;10737;45.436;4.390;2023-07-29T22:01:54;32.00;;;28.77;;
21158;SDS011;10737;45.436;4.390;2023-07-29T22:06:57;22.63;;;20.30;;
21158;SDS011;10737;45.436;4.390;2023-07-29T22:12:01;12.27;;;11.07;;
21158;SDS011;10737;45.436;4.390;2023-07-29T22:17:05;13.50;;;12.25;;
21158;SDS011;10737;45.436;4.390;2023-07-29T22:22:08;22.52;;;20.27;;
21158;SDS011;10737;45.436;4.390;2023-07-29T22:27:13;11.23;;;10.15;;
21158;SDS011;10737;45.436;4.390;2023-07-29T22:32:16;38.17;;;31.35;;
21158;SDS011;10737;45.436;4.390;2023-07-29T22:37:20;31.00;;;26.38;;
21158;SDS011;10737;45.436;4.390;2023-07-29T22:42:24;24.35;;;22.00;;
21158;SDS011;10737;45.436;4.390;2023-07-29T22:47:27;18.48;;;16.67;;
21158;SDS011;10737;45.436;4.390;2023-07-29T22:52:30;14.70;;;13.27;;
21158;SDS011;10737;45.436;4.390;2023-07-29T22:57:35;12.02;;;10.82;;
21158;SDS011;10737;45.436;4.390;2023-07-29T23:02:38;11.98;;;10.98;;
21158;SDS011;10737;45.436;4.390;2023-07-29T23:07:41;11.02;;;9.98;;
21158;SDS011;10737;45.436;4.390;2023-07-29T23:12:46;7.55;;;6.60;;
21158;SDS011;10737;45.436;4.390;2023-07-29T23:17:49;8.27;;;7.10;;
21158;SDS011;10737;45.436;4.390;2023-07-29T23:22:52;6.78;;;6.22;;
21158;SDS011;10737;45.436;4.390;2023-07-29T23:27:57;6.07;;;5.63;;
21158;SDS011;10737;45.436;4.390;2023-07-29T23:33:00;9.30;;;8.50;;
21158;SDS011;10737;45.436;4.390;2023-07-29T23:38:03;6.05;;;5.65;;
21158;SDS011;10737;45.436;4.390;2023-07-29T23:43:08;5.93;;;5.53;;
21158;SDS011;10737;45.436;4.390;2023-07-29T23:48:11;6.50;;;6.00;;
21158;SDS011;10737;45.436;4.390;2023-07-29T23:53:14;6.70;;;6.10;;
21158;SDS011;10737;45.436;4.390;2023-07-29T23:58:18;6.88;;;6.38;;
